This is the latest recevied weather packets stored in our database for station/object W3JGB. If no packets are shown the sender has not sent any weather packets the latest 1 day(s).
| Time | Temp. | Humidity | Pressure | Rain* | Wind** | Luminosity | Snow |
|---|---|---|---|---|---|---|---|
| 1778074405 | 13.89° C | 99% | 1006.6 hPa | 1.78 mm | - | 49 W/m² | - |
| 1778074102 | 13.89° C | 99% | 1006.7 hPa | 1.27 mm | - | 40 W/m² | - |
| 1778073497 | 13.89° C | 99% | 1006.7 hPa | 0 mm | - | 49 W/m² | - |
| 1778073193 | 13.89° C | 99% | 1006.8 hPa | 1.78 mm | - | 49 W/m² | - |
| 1778072586 | 13.89° C | 99% | 1007.1 hPa | 0 mm | - | 53 W/m² | - |
| 1778071075 | 13.89° C | 99% | 1006.9 hPa | 6.1 mm | - | 14 W/m² | - |
| 1778070470 | 13.33° C | 99% | 1007.3 hPa | 4.32 mm | - | 9 W/m² | - |
| 1778070167 | 13.33° C | 99% | 1007.3 hPa | 4.32 mm | - | 11 W/m² | - |
| 1778069562 | 13.33° C | 99% | 1007.5 hPa | 3.05 mm | - | 16 W/m² | - |
| 1778069259 | 13.33° C | 99% | 1007.7 hPa | 3.05 mm | - | 17 W/m² | - |
| 1778068957 | 13.33° C | 99% | 1007.9 hPa | 3.05 mm | - | 15 W/m² | - |
| 1778067143 | 13.33° C | 99% | 1007.1 hPa | 1.78 mm | - | 12 W/m² | - |
| 1778066537 | 13.33° C | 99% | 1006.9 hPa | 1.27 mm | - | 21 W/m² | - |
| 1778066234 | 13.33° C | 99% | 1006.9 hPa | 3.05 mm | - | 6 W/m² | - |
| 1778065023 | 12.78° C | 99% | 1006.6 hPa | 1.78 mm | - | 6 W/m² | - |
| 1778064720 | 12.78° C | 99% | 1006.5 hPa | 1.27 mm | - | 2 W/m² | - |
| 1778064418 | 12.78° C | 99% | 1006.7 hPa | 3.05 mm | - | 2 W/m² | - |
| 1778064115 | 12.78° C | 99% | 1006.6 hPa | 1.78 mm | - | 2 W/m² | - |
| 1778063812 | 13.33° C | 99% | 1006.6 hPa | 0 mm | - | 1 W/m² | - |
| 1778063207 | 13.33° C | 99% | 1006.1 hPa | 0 mm | - | 0 W/m² | - |
| 1778062904 | 13.33° C | 99% | 1006.4 hPa | 0 mm | - | 0 W/m² | - |
| 1778062601 | 13.33° C | 99% | 1006.4 hPa | 1.27 mm | - | 0 W/m² | - |
| 1778062298 | 13.33° C | 99% | 1006.4 hPa | 1.27 mm | - | 0 W/m² | - |
| 1778061694 | 13.33° C | 99% | 1006.5 hPa | 0 mm | - | 0 W/m² | - |
| 1778061089 | 13.33° C | 99% | 1006.3 hPa | 0 mm | - | 0 W/m² | - |
* Rain latest hour (hover to see other rain measurements)
** Current wind speed in m/s (hover to see current wind gust speed)